createdAt,value
2022-10-05T00:01:30.926Z,101104.15
2022-10-05T00:04:11.106Z,101104.78
2022-10-05T00:06:39.650Z,101102.89
2022-10-05T00:09:13.987Z,101100.04
2022-10-05T00:11:42.715Z,101101.02
2022-10-05T00:14:17.437Z,101104.36
2022-10-05T00:16:46.810Z,101101.23
2022-10-05T00:19:26.587Z,101104.14
2022-10-05T00:21:58.614Z,101099.70
2022-10-05T00:24:26.880Z,101094.94
2022-10-05T00:27:01.098Z,101097.09
2022-10-05T00:29:29.430Z,101092.64
2022-10-05T00:31:59.283Z,101085.95
2022-10-05T00:34:27.624Z,101083.41
2022-10-05T00:36:59.993Z,101083.48
2022-10-05T00:39:29.632Z,101081.15
2022-10-05T00:42:23.041Z,101078.61
2022-10-05T00:44:55.376Z,101082.31
2022-10-05T00:47:35.951Z,101091.75
2022-10-05T00:50:29.569Z,101094.12
2022-10-05T00:53:06.085Z,101095.98
2022-10-05T00:55:48.855Z,101100.18
2022-10-05T00:58:28.449Z,101102.94
2022-10-05T01:01:09.374Z,101103.12
2022-10-05T01:03:50.276Z,101099.79
2022-10-05T01:06:25.537Z,101099.80
2022-10-05T01:09:05.911Z,101094.42
2022-10-05T01:11:42.875Z,101089.61
2022-10-05T01:14:19.024Z,101089.61
2022-10-05T01:16:56.198Z,101094.07
2022-10-05T01:19:43.125Z,101097.16
2022-10-05T01:22:29.945Z,101098.89
2022-10-05T01:25:17.761Z,101105.24
2022-10-05T01:27:57.740Z,101101.05
2022-10-05T01:30:26.778Z,101099.36
2022-10-05T01:33:06.669Z,101098.35
2022-10-05T01:35:49.813Z,101097.87
2022-10-05T01:38:32.627Z,101093.86
2022-10-05T01:41:10.217Z,101092.04
2022-10-05T01:43:45.812Z,101090.59
2022-10-05T01:46:25.436Z,101087.96
2022-10-05T01:49:17.295Z,101081.65
2022-10-05T01:51:58.491Z,101086.40
2022-10-05T01:54:39.574Z,101099.46
2022-10-05T01:57:16.970Z,101107.00
2022-10-05T02:00:01.228Z,101112.63
2022-10-05T02:02:34.976Z,101106.10
2022-10-05T02:05:10.064Z,101109.65
2022-10-05T02:07:43.473Z,101108.65
2022-10-05T02:10:18.623Z,101106.77
2022-10-05T02:12:51.194Z,101101.54
2022-10-05T02:15:25.590Z,101096.00
2022-10-05T02:18:01.841Z,101087.72
2022-10-05T02:20:34.542Z,101083.92
2022-10-05T02:23:09.349Z,101088.20
2022-10-05T02:25:40.489Z,101080.60
2022-10-05T02:28:13.809Z,101067.73
2022-10-05T02:30:48.613Z,101054.62
2022-10-05T02:33:25.025Z,101041.10
2022-10-05T02:35:55.879Z,101040.72
2022-10-05T02:38:35.662Z,101046.14
2022-10-05T02:41:12.212Z,101050.50
2022-10-05T02:43:48.081Z,101054.15
2022-10-05T02:46:28.133Z,101057.46
2022-10-05T02:49:09.003Z,101047.11
2022-10-05T02:51:48.977Z,101046.98
2022-10-05T02:54:25.872Z,101054.32
2022-10-05T02:57:04.195Z,101066.04
2022-10-05T02:59:37.857Z,101071.06
2022-10-05T03:02:15.861Z,101054.17
2022-10-05T03:04:55.051Z,101053.30
2022-10-05T03:07:29.079Z,101072.60
2022-10-05T03:10:05.218Z,101076.39
2022-10-05T03:12:54.338Z,101079.11
2022-10-05T03:15:48.241Z,101085.42
2022-10-05T03:18:27.407Z,101077.14
2022-10-05T03:21:11.631Z,101073.67
2022-10-05T03:24:02.003Z,101072.91
2022-10-05T03:26:40.541Z,101078.77
2022-10-05T03:29:29.261Z,101085.63
2022-10-05T03:32:06.851Z,101085.85
2022-10-05T03:34:39.921Z,101087.64
2022-10-05T03:37:15.435Z,101083.45
2022-10-05T03:39:51.550Z,101088.17
2022-10-05T03:42:30.166Z,101082.98
2022-10-05T03:45:04.790Z,101078.91
2022-10-05T03:47:43.730Z,101067.52
2022-10-05T03:50:28.878Z,101056.81
2022-10-05T03:53:03.236Z,101055.54
2022-10-05T03:55:41.531Z,101059.10
2022-10-05T03:58:17.081Z,101060.10
2022-10-05T04:00:52.557Z,101063.32
2022-10-05T04:03:28.729Z,101064.91
2022-10-05T04:06:03.435Z,101054.80
2022-10-05T04:08:40.037Z,101052.86
2022-10-05T04:11:15.634Z,101047.48
2022-10-05T04:13:49.801Z,101044.06
2022-10-05T04:16:34.576Z,101043.30
2022-10-05T04:19:10.380Z,101045.63
2022-10-05T04:21:46.029Z,101043.76
2022-10-05T04:24:22.174Z,101053.02
2022-10-05T04:26:57.723Z,101060.40
2022-10-05T04:29:34.605Z,101053.64
2022-10-05T04:32:27.892Z,101058.50
2022-10-05T04:35:18.782Z,101058.05
2022-10-05T04:37:57.650Z,101060.33
2022-10-05T04:40:44.511Z,101066.08
2022-10-05T04:43:19.672Z,101067.75
2022-10-05T04:46:06.826Z,101065.28
2022-10-05T04:49:09.228Z,101069.73
2022-10-05T04:51:51.400Z,101074.04
2022-10-05T04:54:34.328Z,101069.86
2022-10-05T04:57:08.172Z,101066.00
2022-10-05T05:00:06.142Z,101066.98
2022-10-05T05:02:49.584Z,101066.52
2022-10-05T05:05:31.080Z,101070.05
2022-10-05T05:08:18.533Z,101073.92
2022-10-05T05:11:06.943Z,101081.21
2022-10-05T05:14:06.875Z,101083.75
2022-10-05T05:16:39.840Z,101080.47
2022-10-05T05:19:23.328Z,101083.75
2022-10-05T05:22:03.135Z,101088.90
2022-10-05T05:24:55.302Z,101085.40
2022-10-05T05:27:40.544Z,101084.98
2022-10-05T05:30:19.576Z,101082.29
2022-10-05T05:33:00.924Z,101085.64
2022-10-05T05:35:58.582Z,101084.16
2022-10-05T05:38:34.896Z,101086.20
2022-10-05T05:41:11.902Z,101086.48
2022-10-05T05:44:03.418Z,101083.92
2022-10-05T05:47:02.197Z,101076.81
2022-10-05T05:49:33.433Z,101066.64
2022-10-05T05:52:10.402Z,101068.07
2022-10-05T05:54:42.094Z,101076.77
2022-10-05T05:57:16.698Z,101079.52
2022-10-05T05:59:58.568Z,101078.55
2022-10-05T06:02:32.423Z,101081.85
2022-10-05T06:05:10.651Z,101085.09
2022-10-05T06:07:39.877Z,101088.10
2022-10-05T06:10:17.308Z,101084.61
2022-10-05T06:13:01.717Z,101084.75
2022-10-05T06:15:37.415Z,101080.17
2022-10-05T06:18:12.209Z,101081.39
2022-10-05T06:20:44.251Z,101083.33
2022-10-05T06:23:17.111Z,101085.04
2022-10-05T06:25:55.624Z,101079.04
2022-10-05T06:28:26.858Z,101071.09
2022-10-05T06:31:06.580Z,101067.32
2022-10-05T06:33:46.882Z,101065.05
2022-10-05T06:36:31.895Z,101074.71
2022-10-05T06:39:26.232Z,101078.15
2022-10-05T06:42:08.574Z,101070.77
2022-10-05T06:45:07.613Z,101063.20
2022-10-05T06:48:04.281Z,101070.50
2022-10-05T06:51:03.625Z,101082.98
2022-10-05T06:53:56.313Z,101082.71
2022-10-05T06:56:30.655Z,101088.34
2022-10-05T06:59:07.430Z,101091.02
2022-10-05T07:01:48.264Z,101099.21
2022-10-05T07:04:36.889Z,101094.11
2022-10-05T07:07:16.946Z,101093.96
2022-10-05T07:10:00.231Z,101093.39
2022-10-05T07:12:44.829Z,101089.84
2022-10-05T07:15:42.284Z,101082.61
2022-10-05T07:18:31.911Z,101082.69
2022-10-05T07:21:04.560Z,101081.14
2022-10-05T07:23:52.434Z,101077.12
2022-10-05T07:26:29.021Z,101074.99
2022-10-05T07:29:18.809Z,101075.08
2022-10-05T07:31:57.624Z,101080.44
2022-10-05T07:34:34.691Z,101078.48
2022-10-05T07:37:25.507Z,101076.86
2022-10-05T07:40:04.861Z,101071.17
2022-10-05T07:42:52.807Z,101064.40
2022-10-05T07:45:32.574Z,101062.36
2022-10-05T07:48:12.415Z,101063.89
2022-10-05T07:50:52.556Z,101062.59
2022-10-05T07:53:25.539Z,101059.81
2022-10-05T07:55:57.203Z,101058.39
2022-10-05T07:58:30.774Z,101054.91
2022-10-05T08:01:10.611Z,101058.02
2022-10-05T08:03:49.372Z,101057.71
2022-10-05T08:06:32.311Z,101056.77
2022-10-05T08:09:10.481Z,101058.11
2022-10-05T08:11:47.472Z,101053.41
2022-10-05T08:14:24.418Z,101061.63
2022-10-05T08:16:57.514Z,101056.10
2022-10-05T08:19:33.991Z,101050.70
2022-10-05T08:22:06.568Z,101046.29
2022-10-05T08:24:48.772Z,101038.52
2022-10-05T08:27:25.417Z,101041.09
2022-10-05T08:29:58.479Z,101042.16
2022-10-05T08:32:31.545Z,101036.41
2022-10-05T08:35:14.750Z,101034.00
2022-10-05T08:37:45.728Z,101028.70
2022-10-05T08:40:38.682Z,101025.52
2022-10-05T08:43:16.408Z,101027.55
2022-10-05T08:46:18.574Z,101031.02
2022-10-05T08:49:10.618Z,101031.21
2022-10-05T08:51:55.887Z,101031.57
2022-10-05T08:54:38.084Z,101034.79
2022-10-05T08:57:31.557Z,101031.38
2022-10-05T09:00:10.122Z,101033.89
2022-10-05T09:03:06.480Z,101031.11
2022-10-05T09:06:11.285Z,101024.23
2022-10-05T09:08:59.034Z,101023.20
2022-10-05T09:11:36.237Z,101016.66
2022-10-05T09:14:30.389Z,101013.60
2022-10-05T09:17:22.436Z,101012.67
2022-10-05T09:19:59.795Z,101007.05
2022-10-05T09:22:42.686Z,101005.80
2022-10-05T09:25:27.791Z,100996.45
2022-10-05T09:28:04.760Z,100993.67
2022-10-05T09:30:52.257Z,100989.81
2022-10-05T09:33:51.281Z,100986.20
2022-10-05T09:36:54.504Z,100983.33
2022-10-05T09:40:01.641Z,100983.70
2022-10-05T09:42:54.677Z,100989.45
2022-10-05T09:45:41.915Z,100991.48
2022-10-05T09:48:45.391Z,100994.41
2022-10-05T09:51:54.860Z,100993.69
2022-10-05T09:55:02.377Z,100999.36
2022-10-05T09:58:13.790Z,100996.24
2022-10-05T10:01:08.887Z,100998.14
2022-10-05T10:04:24.174Z,100989.79
2022-10-05T10:07:32.242Z,100994.47
2022-10-05T10:10:23.464Z,100998.14
2022-10-05T10:13:07.510Z,101007.92
2022-10-05T10:16:03.517Z,101012.92
2022-10-05T10:19:11.999Z,101014.52
2022-10-05T10:22:20.690Z,101007.77
2022-10-05T10:25:01.926Z,101012.42
2022-10-05T10:27:53.827Z,101019.36
2022-10-05T10:30:54.550Z,101026.48
2022-10-05T10:34:09.928Z,101018.58
2022-10-05T10:36:58.958Z,101013.63
2022-10-05T10:39:44.815Z,101011.12
2022-10-05T10:42:37.282Z,100999.86
2022-10-05T10:45:19.174Z,100988.23
2022-10-05T10:47:59.760Z,100981.64
2022-10-05T10:51:04.091Z,100982.60
2022-10-05T10:54:03.182Z,100966.31
2022-10-05T10:56:41.603Z,100956.80
2022-10-05T10:59:40.946Z,100957.08
2022-10-05T11:02:27.284Z,100946.86
2022-10-05T11:05:16.935Z,100946.56
2022-10-05T11:08:13.125Z,100953.87
2022-10-05T11:11:12.465Z,100951.61
2022-10-05T11:14:05.541Z,100945.07
2022-10-05T11:17:07.637Z,100935.48
2022-10-05T11:20:06.437Z,100939.16
2022-10-05T11:22:58.191Z,100939.89
2022-10-05T11:26:01.046Z,100943.16
2022-10-05T11:28:46.307Z,100944.98
2022-10-05T11:31:47.091Z,100949.88
2022-10-05T11:34:45.740Z,100948.73
2022-10-05T11:37:48.555Z,100941.14
2022-10-05T11:40:47.120Z,100937.67
2022-10-05T11:43:37.776Z,100936.84
2022-10-05T11:46:14.113Z,100936.33
2022-10-05T11:48:54.932Z,100935.08
2022-10-05T11:51:34.304Z,100930.21
2022-10-05T11:54:20.386Z,100924.70
2022-10-05T11:56:56.729Z,100929.17
2022-10-05T11:59:34.239Z,100938.50
2022-10-05T12:02:26.905Z,100940.41
2022-10-05T12:05:03.178Z,100943.36
2022-10-05T12:07:41.691Z,100942.98
2022-10-05T12:10:30.637Z,100940.27
2022-10-05T12:13:18.981Z,100938.47
2022-10-05T12:15:54.180Z,100937.23
2022-10-05T12:18:42.775Z,100934.86
2022-10-05T12:21:15.396Z,100939.22
2022-10-05T12:23:51.651Z,100940.62
2022-10-05T12:26:26.143Z,100938.84
2022-10-05T12:29:01.891Z,100936.78
2022-10-05T12:31:41.581Z,100933.02
2022-10-05T12:34:20.406Z,100928.97
2022-10-05T12:37:06.962Z,100932.78
2022-10-05T12:39:43.401Z,100932.41
2022-10-05T12:42:25.872Z,100934.44
2022-10-05T12:45:06.714Z,100930.80
2022-10-05T12:47:53.741Z,100931.70
2022-10-05T12:50:27.774Z,100931.83
2022-10-05T12:53:13.900Z,100932.19
2022-10-05T12:55:53.411Z,100932.48
2022-10-05T12:58:33.118Z,100932.42
2022-10-05T13:01:09.727Z,100931.98
2022-10-05T13:03:42.746Z,100934.98
2022-10-05T13:06:18.931Z,100932.04
2022-10-05T13:08:58.092Z,100928.68
2022-10-05T13:11:38.813Z,100921.96
2022-10-05T13:14:25.486Z,100924.48
2022-10-05T13:17:04.289Z,100927.20
2022-10-05T13:19:39.619Z,100923.02
2022-10-05T13:22:31.664Z,100922.92
2022-10-05T13:25:18.375Z,100926.02
2022-10-05T13:27:54.978Z,100924.94
2022-10-05T13:30:23.482Z,100925.96
2022-10-05T13:32:57.462Z,100921.60
2022-10-05T13:35:40.265Z,100921.18
2022-10-05T13:38:21.002Z,100916.30
2022-10-05T13:41:01.794Z,100917.42
2022-10-05T13:43:39.699Z,100917.95
2022-10-05T13:46:18.732Z,100919.69
2022-10-05T13:49:00.907Z,100922.36
2022-10-05T13:51:39.929Z,100927.58
2022-10-05T13:54:20.581Z,100923.90
2022-10-05T13:56:54.371Z,100933.61
2022-10-05T13:59:32.765Z,100936.58
2022-10-05T14:02:07.961Z,100933.55
2022-10-05T14:04:46.662Z,100921.41
2022-10-05T14:07:29.789Z,100920.27
2022-10-05T14:09:59.083Z,100917.31
2022-10-05T14:12:40.349Z,100907.42
2022-10-05T14:15:22.090Z,100901.30
2022-10-05T14:17:52.333Z,100895.36
2022-10-05T14:20:27.798Z,100893.38
2022-10-05T14:23:01.433Z,100895.41
2022-10-05T14:25:30.923Z,100898.25
2022-10-05T14:28:03.373Z,100895.56
2022-10-05T14:30:32.718Z,100887.16
2022-10-05T14:33:15.040Z,100888.70
2022-10-05T14:35:49.166Z,100889.87
2022-10-05T14:38:21.031Z,100891.17
2022-10-05T14:41:05.395Z,100893.42
2022-10-05T14:43:35.202Z,100891.26
2022-10-05T14:46:28.153Z,100894.61
2022-10-05T14:49:20.575Z,100891.58
2022-10-05T14:51:49.656Z,100887.21
2022-10-05T14:54:34.617Z,100888.29
2022-10-05T14:57:22.788Z,100885.20
2022-10-05T15:00:04.706Z,100885.83
2022-10-05T15:02:52.223Z,100888.25
2022-10-05T15:05:30.810Z,100892.95
2022-10-05T15:08:08.756Z,100891.87
2022-10-05T15:10:40.407Z,100888.89
2022-10-05T15:13:18.204Z,100883.02
2022-10-05T15:15:54.142Z,100878.75
2022-10-05T15:18:40.708Z,100874.28
2022-10-05T15:21:29.907Z,100870.34
2022-10-05T15:24:04.742Z,100868.14
2022-10-05T15:26:46.277Z,100864.72
2022-10-05T15:29:27.001Z,100862.77
2022-10-05T15:32:07.146Z,100859.33
2022-10-05T15:34:41.165Z,100861.28
2022-10-05T15:37:16.550Z,100860.11
2022-10-05T15:39:53.005Z,100860.34
2022-10-05T15:42:33.058Z,100859.27
2022-10-05T15:45:07.242Z,100853.38
2022-10-05T15:47:46.972Z,100848.11
2022-10-05T15:50:22.873Z,100849.01
2022-10-05T15:52:56.285Z,100846.18
2022-10-05T15:55:47.094Z,100853.56
2022-10-05T15:58:46.292Z,100856.23
2022-10-05T16:01:18.078Z,100864.20
2022-10-05T16:04:02.668Z,100863.05
2022-10-05T16:07:01.459Z,100862.92
2022-10-05T16:09:44.192Z,100861.44
2022-10-05T16:12:33.836Z,100866.20
2022-10-05T16:15:19.656Z,100861.06
2022-10-05T16:18:00.310Z,100855.98
2022-10-05T16:20:41.386Z,100848.02
2022-10-05T16:23:23.930Z,100835.83
2022-10-05T16:26:03.505Z,100836.13
2022-10-05T16:28:45.709Z,100835.15
2022-10-05T16:31:21.327Z,100826.58
2022-10-05T16:34:06.059Z,100824.17
2022-10-05T16:36:50.172Z,100830.61
2022-10-05T16:39:23.121Z,100820.58
2022-10-05T16:41:58.263Z,100824.39
2022-10-05T16:44:38.351Z,100825.91
2022-10-05T16:47:40.713Z,100818.69
2022-10-05T16:53:12.482Z,100819.96
2022-10-05T16:55:44.276Z,100821.48
2022-10-05T16:58:21.276Z,100821.66
2022-10-05T17:01:11.730Z,100820.71
2022-10-05T17:04:02.771Z,100819.58
2022-10-05T17:06:53.435Z,100822.86
2022-10-05T17:09:45.209Z,100821.80
2022-10-05T17:12:32.459Z,100822.88
2022-10-05T17:15:14.502Z,100825.74
2022-10-05T17:17:58.044Z,100828.05
2022-10-05T17:20:42.890Z,100821.38
2022-10-05T17:23:31.498Z,100820.59
2022-10-05T17:26:16.061Z,100822.02
2022-10-05T17:29:08.529Z,100828.26
2022-10-05T17:32:10.479Z,100826.17
2022-10-05T17:35:00.276Z,100825.35
2022-10-05T17:37:36.937Z,100825.52
2022-10-05T17:40:31.551Z,100825.39
2022-10-05T17:43:02.214Z,100818.96
2022-10-05T17:46:05.581Z,100814.05
2022-10-05T17:48:40.520Z,100812.86
2022-10-05T17:51:56.578Z,100815.05
2022-10-05T17:54:47.109Z,100815.13
2022-10-05T17:57:27.323Z,100813.84
2022-10-05T18:00:02.057Z,100811.35
2022-10-05T18:02:42.731Z,100809.68
2022-10-05T18:05:27.224Z,100805.91
2022-10-05T18:08:33.199Z,100805.02
2022-10-05T18:11:16.825Z,100806.00
2022-10-05T18:13:49.386Z,100805.00
2022-10-05T18:16:50.082Z,100808.31
2022-10-05T18:19:21.711Z,100802.34
2022-10-05T18:22:26.280Z,100804.95
2022-10-05T18:25:05.303Z,100807.80
2022-10-05T18:28:00.280Z,100807.84
2022-10-05T18:30:36.426Z,100804.88
2022-10-05T18:33:32.954Z,100804.06
2022-10-05T18:36:26.951Z,100802.27
2022-10-05T18:39:03.105Z,100800.49
2022-10-05T18:41:47.282Z,100806.30
2022-10-05T18:44:41.709Z,100805.40
2022-10-05T18:47:18.108Z,100803.60
2022-10-05T18:50:00.428Z,100800.40
2022-10-05T18:52:43.534Z,100803.73
2022-10-05T18:55:19.043Z,100804.64
2022-10-05T18:58:16.370Z,100805.30
2022-10-05T19:01:13.603Z,100805.89
2022-10-05T19:03:51.408Z,100808.55
2022-10-05T19:17:24.152Z,100796.54
2022-10-05T19:20:12.604Z,100793.79
2022-10-05T19:22:53.591Z,100796.10
2022-10-05T19:25:36.585Z,100794.43
2022-10-05T19:28:18.470Z,100793.80
2022-10-05T19:30:59.878Z,100793.80
2022-10-05T19:33:41.315Z,100795.79
2022-10-05T19:36:25.335Z,100792.81
2022-10-05T19:39:03.587Z,100790.66
2022-10-05T19:41:51.444Z,100792.61
2022-10-05T19:44:29.876Z,100793.48
2022-10-05T19:47:05.626Z,100791.09
2022-10-05T19:49:49.685Z,100795.48
2022-10-05T19:52:24.244Z,100799.61
2022-10-05T19:55:15.032Z,100801.59
2022-10-05T19:57:48.708Z,100810.61
2022-10-05T20:00:24.887Z,100809.58
2022-10-05T20:03:10.053Z,100808.63
2022-10-05T20:05:39.229Z,100807.21
2022-10-05T20:08:11.821Z,100809.55
2022-10-05T20:10:40.598Z,100806.92
2022-10-05T20:13:21.507Z,100811.55
2022-10-05T20:16:26.517Z,100811.23
2022-10-05T20:19:13.186Z,100814.59
2022-10-05T20:21:54.048Z,100814.23
2022-10-05T20:24:29.113Z,100817.66
2022-10-05T20:27:05.128Z,100819.45
2022-10-05T20:29:36.338Z,100824.37
2022-10-05T20:32:08.652Z,100819.29
2022-10-05T20:34:40.777Z,100819.09
2022-10-05T20:37:10.951Z,100819.54
2022-10-05T20:39:40.207Z,100819.03
2022-10-05T20:42:09.699Z,100821.17
2022-10-05T20:44:38.299Z,100827.13
2022-10-05T20:47:09.390Z,100827.45
2022-10-05T20:49:40.753Z,100829.23
2022-10-05T20:52:11.428Z,100825.21
2022-10-05T20:54:39.914Z,100823.23
2022-10-05T20:57:09.261Z,100826.71
2022-10-05T20:59:38.110Z,100831.66
2022-10-05T21:02:07.155Z,100831.25
2022-10-05T21:04:40.607Z,100833.69
2022-10-05T21:07:10.670Z,100835.79
2022-10-05T21:09:42.263Z,100837.33
2022-10-05T21:12:11.585Z,100839.89
2022-10-05T21:14:42.553Z,100841.48
2022-10-05T21:17:12.874Z,100842.83
2022-10-05T21:19:43.040Z,100847.52
2022-10-05T21:22:11.324Z,100843.19
2022-10-05T21:24:40.612Z,100849.77
2022-10-05T21:27:10.497Z,100849.83
2022-10-05T21:29:40.604Z,100849.90
2022-10-05T21:32:10.956Z,100850.45
2022-10-05T21:34:39.713Z,100852.71
2022-10-05T21:37:08.415Z,100854.13
2022-10-05T21:39:38.359Z,100852.58
2022-10-05T21:42:06.812Z,100857.48
2022-10-05T21:44:35.593Z,100856.54
2022-10-05T21:47:06.351Z,100857.25
2022-10-05T21:49:35.739Z,100863.00
2022-10-05T21:52:05.117Z,100857.65
2022-10-05T21:54:34.560Z,100857.56
2022-10-05T21:57:05.817Z,100860.48
2022-10-05T21:59:34.809Z,100861.35
2022-10-05T22:02:04.280Z,100863.70
2022-10-05T22:04:34.109Z,100865.00
2022-10-05T22:07:17.979Z,100862.73
2022-10-05T22:09:47.753Z,100863.00
2022-10-05T22:12:18.794Z,100860.61
2022-10-05T22:14:47.185Z,100861.16
2022-10-05T22:17:22.547Z,100859.77
2022-10-05T22:19:51.243Z,100858.36
2022-10-05T22:22:20.132Z,100858.50
2022-10-05T22:24:48.652Z,100853.81
2022-10-05T22:27:18.268Z,100849.53
2022-10-05T22:29:47.903Z,100850.63
2022-10-05T22:32:19.761Z,100851.13
2022-10-05T22:34:51.458Z,100851.88
2022-10-05T22:37:20.165Z,100851.40
2022-10-05T22:39:48.655Z,100848.10
2022-10-05T22:42:16.872Z,100851.09
2022-10-05T22:44:45.462Z,100850.30
2022-10-05T22:47:14.223Z,100851.09
2022-10-05T22:49:42.437Z,100850.11
2022-10-05T22:52:10.881Z,100854.72
2022-10-05T22:54:39.170Z,100856.29
2022-10-05T22:57:07.383Z,100856.16
2022-10-05T22:59:36.028Z,100856.80
2022-10-05T23:02:04.826Z,100861.17
2022-10-05T23:04:33.181Z,100862.87
2022-10-05T23:07:02.720Z,100864.63
2022-10-05T23:09:30.974Z,100865.43
2022-10-05T23:11:59.224Z,100866.23
2022-10-05T23:14:30.193Z,100867.33
2022-10-05T23:16:59.958Z,100872.24
2022-10-05T23:19:28.539Z,100870.30
2022-10-05T23:21:56.773Z,100873.64
2022-10-05T23:24:25.102Z,100874.95
2022-10-05T23:26:55.184Z,100878.38
2022-10-05T23:29:23.536Z,100882.42
2022-10-05T23:31:52.330Z,100884.67
2022-10-05T23:34:20.815Z,100884.66
2022-10-05T23:36:49.154Z,100884.11
2022-10-05T23:39:17.304Z,100878.06
2022-10-05T23:41:45.745Z,100878.56
2022-10-05T23:44:14.324Z,100875.36
2022-10-05T23:46:42.608Z,100878.48
2022-10-05T23:49:11.086Z,100878.65
2022-10-05T23:51:39.566Z,100877.25
2022-10-05T23:54:07.951Z,100879.11
2022-10-05T23:56:36.567Z,100878.25
2022-10-05T23:59:05.216Z,100879.23
